sensor_id;sensor_type;location;lat;lon;timestamp;P1;durP1;ratioP1;P2;durP2;ratioP2
30998;SDS011;20549;50.042;8.968;2023-03-23T00:00:54;1.12;;;0.80;;
30998;SDS011;20549;50.042;8.968;2023-03-23T00:03:21;1.15;;;0.80;;
30998;SDS011;20549;50.042;8.968;2023-03-23T00:05:47;1.02;;;1.00;;
30998;SDS011;20549;50.042;8.968;2023-03-23T00:08:14;0.68;;;0.65;;
30998;SDS011;20549;50.042;8.968;2023-03-23T00:10:40;0.70;;;0.70;;
30998;SDS011;20549;50.042;8.968;2023-03-23T00:13:07;0.95;;;0.90;;
30998;SDS011;20549;50.042;8.968;2023-03-23T00:15:33;1.98;;;0.98;;
30998;SDS011;20549;50.042;8.968;2023-03-23T00:18:00;1.02;;;0.88;;
30998;SDS011;20549;50.042;8.968;2023-03-23T00:20:29;1.32;;;1.00;;
30998;SDS011;20549;50.042;8.968;2023-03-23T00:22:56;1.10;;;1.00;;
30998;SDS011;20549;50.042;8.968;2023-03-23T00:25:25;0.90;;;0.90;;
30998;SDS011;20549;50.042;8.968;2023-03-23T00:27:51;0.90;;;0.90;;
30998;SDS011;20549;50.042;8.968;2023-03-23T00:30:18;1.10;;;1.00;;
30998;SDS011;20549;50.042;8.968;2023-03-23T00:32:44;0.78;;;0.78;;
30998;SDS011;20549;50.042;8.968;2023-03-23T00:35:11;0.80;;;0.80;;
30998;SDS011;20549;50.042;8.968;2023-03-23T00:37:38;0.80;;;0.80;;
30998;SDS011;20549;50.042;8.968;2023-03-23T00:40:04;0.78;;;0.78;;
30998;SDS011;20549;50.042;8.968;2023-03-23T00:42:31;1.60;;;1.00;;
30998;SDS011;20549;50.042;8.968;2023-03-23T00:44:57;0.98;;;0.90;;
30998;SDS011;20549;50.042;8.968;2023-03-23T00:47:24;1.20;;;1.12;;
30998;SDS011;20549;50.042;8.968;2023-03-23T00:49:51;1.20;;;1.10;;
30998;SDS011;20549;50.042;8.968;2023-03-23T00:52:17;0.90;;;0.90;;
30998;SDS011;20549;50.042;8.968;2023-03-23T00:54:44;0.88;;;0.88;;
30998;SDS011;20549;50.042;8.968;2023-03-23T00:57:10;0.70;;;0.70;;
30998;SDS011;20549;50.042;8.968;2023-03-23T00:59:37;1.10;;;1.00;;
30998;SDS011;20549;50.042;8.968;2023-03-23T01:02:04;1.15;;;0.90;;
30998;SDS011;20549;50.042;8.968;2023-03-23T01:04:30;1.07;;;0.98;;
30998;SDS011;20549;50.042;8.968;2023-03-23T01:06:57;0.80;;;0.80;;
30998;SDS011;20549;50.042;8.968;2023-03-23T01:09:23;0.75;;;0.75;;
30998;SDS011;20549;50.042;8.968;2023-03-23T01:11:50;0.90;;;0.90;;
30998;SDS011;20549;50.042;8.968;2023-03-23T01:14:18;1.07;;;1.02;;
30998;SDS011;20549;50.042;8.968;2023-03-23T01:16:43;0.72;;;0.70;;
30998;SDS011;20549;50.042;8.968;2023-03-23T01:19:10;0.90;;;0.82;;
30998;SDS011;20549;50.042;8.968;2023-03-23T01:21:36;1.75;;;0.88;;
30998;SDS011;20549;50.042;8.968;2023-03-23T01:24:03;1.00;;;0.88;;
30998;SDS011;20549;50.042;8.968;2023-03-23T01:26:29;1.25;;;0.70;;
30998;SDS011;20549;50.042;8.968;2023-03-23T01:28:56;0.70;;;0.70;;
30998;SDS011;20549;50.042;8.968;2023-03-23T01:31:24;1.05;;;0.80;;
30998;SDS011;20549;50.042;8.968;2023-03-23T01:33:50;1.30;;;0.78;;
30998;SDS011;20549;50.042;8.968;2023-03-23T01:36:17;0.70;;;0.70;;
30998;SDS011;20549;50.042;8.968;2023-03-23T01:38:46;1.20;;;0.62;;
30998;SDS011;20549;50.042;8.968;2023-03-23T01:41:13;0.62;;;0.60;;
30998;SDS011;20549;50.042;8.968;2023-03-23T01:43:54;0.95;;;0.75;;
30998;SDS011;20549;50.042;8.968;2023-03-23T01:46:20;0.80;;;0.80;;
30998;SDS011;20549;50.042;8.968;2023-03-23T01:48:47;0.93;;;0.78;;
30998;SDS011;20549;50.042;8.968;2023-03-23T01:51:14;0.70;;;0.70;;
30998;SDS011;20549;50.042;8.968;2023-03-23T01:53:42;0.82;;;0.82;;
30998;SDS011;20549;50.042;8.968;2023-03-23T01:56:13;0.80;;;0.80;;
30998;SDS011;20549;50.042;8.968;2023-03-23T01:58:39;0.88;;;0.70;;
30998;SDS011;20549;50.042;8.968;2023-03-23T02:01:08;0.70;;;0.70;;
30998;SDS011;20549;50.042;8.968;2023-03-23T02:03:32;0.70;;;0.70;;
30998;SDS011;20549;50.042;8.968;2023-03-23T02:05:59;0.85;;;0.85;;
30998;SDS011;20549;50.042;8.968;2023-03-23T02:08:27;0.60;;;0.60;;
30998;SDS011;20549;50.042;8.968;2023-03-23T02:10:54;1.72;;;0.93;;
30998;SDS011;20549;50.042;8.968;2023-03-23T02:13:21;1.72;;;0.70;;
30998;SDS011;20549;50.042;8.968;2023-03-23T02:18:23;0.90;;;0.75;;
30998;SDS011;20549;50.042;8.968;2023-03-23T02:23:31;0.80;;;0.80;;
30998;SDS011;20549;50.042;8.968;2023-03-23T02:26:02;0.70;;;0.68;;
30998;SDS011;20549;50.042;8.968;2023-03-23T02:33:58;0.90;;;0.90;;
30998;SDS011;20549;50.042;8.968;2023-03-23T02:39:02;0.62;;;0.62;;
30998;SDS011;20549;50.042;8.968;2023-03-23T02:41:31;0.62;;;0.62;;
30998;SDS011;20549;50.042;8.968;2023-03-23T02:43:56;0.68;;;0.68;;
30998;SDS011;20549;50.042;8.968;2023-03-23T02:46:23;0.70;;;0.70;;
30998;SDS011;20549;50.042;8.968;2023-03-23T02:48:49;0.80;;;0.80;;
30998;SDS011;20549;50.042;8.968;2023-03-23T02:51:16;0.85;;;0.80;;
30998;SDS011;20549;50.042;8.968;2023-03-23T02:53:43;0.53;;;0.53;;
30998;SDS011;20549;50.042;8.968;2023-03-23T02:56:09;0.62;;;0.62;;
30998;SDS011;20549;50.042;8.968;2023-03-23T02:58:36;1.05;;;0.75;;
30998;SDS011;20549;50.042;8.968;2023-03-23T03:03:51;1.62;;;0.75;;
30998;SDS011;20549;50.042;8.968;2023-03-23T03:06:27;1.30;;;0.90;;
30998;SDS011;20549;50.042;8.968;2023-03-23T03:09:04;0.72;;;0.72;;
30998;SDS011;20549;50.042;8.968;2023-03-23T03:11:25;1.10;;;1.10;;
30998;SDS011;20549;50.042;8.968;2023-03-23T03:14:08;2.12;;;0.90;;
30998;SDS011;20549;50.042;8.968;2023-03-23T03:16:38;0.98;;;0.95;;
30998;SDS011;20549;50.042;8.968;2023-03-23T03:21:42;1.72;;;0.93;;
30998;SDS011;20549;50.042;8.968;2023-03-23T03:24:08;0.85;;;0.80;;
30998;SDS011;20549;50.042;8.968;2023-03-23T03:26:35;1.05;;;0.80;;
30998;SDS011;20549;50.042;8.968;2023-03-23T03:29:01;0.80;;;0.80;;
30998;SDS011;20549;50.042;8.968;2023-03-23T03:31:29;2.30;;;0.98;;
30998;SDS011;20549;50.042;8.968;2023-03-23T03:33:54;0.70;;;0.70;;
30998;SDS011;20549;50.042;8.968;2023-03-23T03:36:22;3.22;;;0.85;;
30998;SDS011;20549;50.042;8.968;2023-03-23T03:38:48;0.93;;;0.93;;
30998;SDS011;20549;50.042;8.968;2023-03-23T03:41:14;0.90;;;0.80;;
30998;SDS011;20549;50.042;8.968;2023-03-23T03:43:41;1.02;;;1.00;;
30998;SDS011;20549;50.042;8.968;2023-03-23T03:46:07;1.12;;;0.70;;
30998;SDS011;20549;50.042;8.968;2023-03-23T03:48:34;1.20;;;0.75;;
30998;SDS011;20549;50.042;8.968;2023-03-23T03:51:00;0.82;;;0.82;;
30998;SDS011;20549;50.042;8.968;2023-03-23T03:53:27;0.93;;;0.93;;
30998;SDS011;20549;50.042;8.968;2023-03-23T03:55:54;1.20;;;1.10;;
30998;SDS011;20549;50.042;8.968;2023-03-23T03:58:23;0.93;;;0.85;;
30998;SDS011;20549;50.042;8.968;2023-03-23T04:00:49;1.62;;;1.00;;
30998;SDS011;20549;50.042;8.968;2023-03-23T04:03:16;2.70;;;1.17;;
30998;SDS011;20549;50.042;8.968;2023-03-23T04:05:43;0.85;;;0.82;;
30998;SDS011;20549;50.042;8.968;2023-03-23T04:08:10;0.85;;;0.85;;
30998;SDS011;20549;50.042;8.968;2023-03-23T04:10:36;0.95;;;0.80;;
30998;SDS011;20549;50.042;8.968;2023-03-23T04:13:02;1.02;;;0.98;;
30998;SDS011;20549;50.042;8.968;2023-03-23T04:15:29;1.77;;;1.17;;
30998;SDS011;20549;50.042;8.968;2023-03-23T04:17:56;1.05;;;1.00;;
30998;SDS011;20549;50.042;8.968;2023-03-23T04:20:23;1.10;;;1.00;;
30998;SDS011;20549;50.042;8.968;2023-03-23T04:22:49;0.88;;;0.80;;
30998;SDS011;20549;50.042;8.968;2023-03-23T04:25:17;1.30;;;1.20;;
30998;SDS011;20549;50.042;8.968;2023-03-23T04:27:42;2.08;;;0.98;;
30998;SDS011;20549;50.042;8.968;2023-03-23T04:30:09;1.22;;;1.02;;
30998;SDS011;20549;50.042;8.968;2023-03-23T04:32:35;0.95;;;0.93;;
30998;SDS011;20549;50.042;8.968;2023-03-23T04:35:02;1.17;;;1.07;;
30998;SDS011;20549;50.042;8.968;2023-03-23T04:37:28;1.77;;;0.93;;
30998;SDS011;20549;50.042;8.968;2023-03-23T04:39:55;1.02;;;0.93;;
30998;SDS011;20549;50.042;8.968;2023-03-23T04:42:21;1.32;;;1.22;;
30998;SDS011;20549;50.042;8.968;2023-03-23T04:44:48;2.58;;;1.02;;
30998;SDS011;20549;50.042;8.968;2023-03-23T04:47:17;1.27;;;1.00;;
30998;SDS011;20549;50.042;8.968;2023-03-23T04:49:44;0.90;;;0.90;;
30998;SDS011;20549;50.042;8.968;2023-03-23T04:52:11;1.52;;;0.93;;
30998;SDS011;20549;50.042;8.968;2023-03-23T04:54:37;1.10;;;1.00;;
30998;SDS011;20549;50.042;8.968;2023-03-23T04:57:04;1.32;;;1.15;;
30998;SDS011;20549;50.042;8.968;2023-03-23T04:59:30;1.25;;;1.15;;
30998;SDS011;20549;50.042;8.968;2023-03-23T05:01:57;0.90;;;0.90;;
30998;SDS011;20549;50.042;8.968;2023-03-23T05:04:23;2.08;;;1.17;;
30998;SDS011;20549;50.042;8.968;2023-03-23T05:06:53;2.15;;;0.80;;
30998;SDS011;20549;50.042;8.968;2023-03-23T05:09:17;1.20;;;1.10;;
30998;SDS011;20549;50.042;8.968;2023-03-23T05:11:43;0.90;;;0.90;;
30998;SDS011;20549;50.042;8.968;2023-03-23T05:14:10;1.30;;;1.10;;
30998;SDS011;20549;50.042;8.968;2023-03-23T05:16:36;0.90;;;0.90;;
30998;SDS011;20549;50.042;8.968;2023-03-23T05:19:03;1.05;;;0.95;;
30998;SDS011;20549;50.042;8.968;2023-03-23T05:21:30;1.82;;;1.30;;
30998;SDS011;20549;50.042;8.968;2023-03-23T05:23:56;1.40;;;1.30;;
30998;SDS011;20549;50.042;8.968;2023-03-23T05:26:23;1.17;;;1.07;;
30998;SDS011;20549;50.042;8.968;2023-03-23T05:28:49;1.40;;;1.30;;
30998;SDS011;20549;50.042;8.968;2023-03-23T05:31:16;1.10;;;1.00;;
30998;SDS011;20549;50.042;8.968;2023-03-23T05:33:43;1.00;;;0.80;;
30998;SDS011;20549;50.042;8.968;2023-03-23T05:36:09;1.02;;;0.98;;
30998;SDS011;20549;50.042;8.968;2023-03-23T05:38:36;1.12;;;1.02;;
30998;SDS011;20549;50.042;8.968;2023-03-23T05:41:02;1.12;;;1.07;;
30998;SDS011;20549;50.042;8.968;2023-03-23T05:43:29;1.07;;;1.00;;
30998;SDS011;20549;50.042;8.968;2023-03-23T05:45:56;1.32;;;1.20;;
30998;SDS011;20549;50.042;8.968;2023-03-23T05:48:22;0.90;;;0.90;;
30998;SDS011;20549;50.042;8.968;2023-03-23T05:50:49;1.00;;;1.00;;
30998;SDS011;20549;50.042;8.968;2023-03-23T05:53:15;2.22;;;1.22;;
30998;SDS011;20549;50.042;8.968;2023-03-23T05:55:42;1.40;;;1.20;;
30998;SDS011;20549;50.042;8.968;2023-03-23T05:58:08;1.30;;;1.20;;
30998;SDS011;20549;50.042;8.968;2023-03-23T06:00:35;1.25;;;1.22;;
30998;SDS011;20549;50.042;8.968;2023-03-23T06:03:02;1.30;;;1.00;;
30998;SDS011;20549;50.042;8.968;2023-03-23T06:05:28;1.10;;;1.00;;
30998;SDS011;20549;50.042;8.968;2023-03-23T06:07:55;2.15;;;1.20;;
30998;SDS011;20549;50.042;8.968;2023-03-23T06:10:21;1.55;;;1.20;;
30998;SDS011;20549;50.042;8.968;2023-03-23T06:12:49;1.67;;;1.35;;
30998;SDS011;20549;50.042;8.968;2023-03-23T06:15:15;1.55;;;1.37;;
30998;SDS011;20549;50.042;8.968;2023-03-23T06:17:41;1.37;;;1.27;;
30998;SDS011;20549;50.042;8.968;2023-03-23T06:20:08;3.10;;;1.50;;
30998;SDS011;20549;50.042;8.968;2023-03-23T06:22:35;2.20;;;1.90;;
30998;SDS011;20549;50.042;8.968;2023-03-23T06:25:04;1.85;;;1.40;;
30998;SDS011;20549;50.042;8.968;2023-03-23T06:27:30;2.02;;;1.40;;
30998;SDS011;20549;50.042;8.968;2023-03-23T06:29:57;1.65;;;1.55;;
30998;SDS011;20549;50.042;8.968;2023-03-23T06:32:24;1.30;;;1.20;;
30998;SDS011;20549;50.042;8.968;2023-03-23T06:34:50;1.80;;;1.60;;
30998;SDS011;20549;50.042;8.968;2023-03-23T06:37:17;1.32;;;1.22;;
30998;SDS011;20549;50.042;8.968;2023-03-23T06:39:43;1.35;;;1.25;;
30998;SDS011;20549;50.042;8.968;2023-03-23T06:42:10;1.52;;;1.20;;
30998;SDS011;20549;50.042;8.968;2023-03-23T06:44:39;1.20;;;1.10;;
30998;SDS011;20549;50.042;8.968;2023-03-23T06:47:06;1.95;;;1.10;;
30998;SDS011;20549;50.042;8.968;2023-03-23T06:49:33;1.72;;;1.00;;
30998;SDS011;20549;50.042;8.968;2023-03-23T06:51:59;1.20;;;1.00;;
30998;SDS011;20549;50.042;8.968;2023-03-23T06:54:25;1.45;;;1.20;;
30998;SDS011;20549;50.042;8.968;2023-03-23T06:56:52;1.25;;;1.10;;
30998;SDS011;20549;50.042;8.968;2023-03-23T06:59:19;1.10;;;1.05;;
30998;SDS011;20549;50.042;8.968;2023-03-23T07:01:45;1.70;;;1.07;;
30998;SDS011;20549;50.042;8.968;2023-03-23T07:04:12;0.90;;;0.90;;
30998;SDS011;20549;50.042;8.968;2023-03-23T07:06:38;1.98;;;1.40;;
30998;SDS011;20549;50.042;8.968;2023-03-23T07:09:05;1.22;;;1.07;;
30998;SDS011;20549;50.042;8.968;2023-03-23T07:11:32;1.00;;;1.00;;
30998;SDS011;20549;50.042;8.968;2023-03-23T07:13:58;1.00;;;1.00;;
30998;SDS011;20549;50.042;8.968;2023-03-23T07:16:25;1.32;;;1.22;;
30998;SDS011;20549;50.042;8.968;2023-03-23T07:18:52;0.90;;;0.90;;
30998;SDS011;20549;50.042;8.968;2023-03-23T07:21:18;1.32;;;1.05;;
30998;SDS011;20549;50.042;8.968;2023-03-23T07:23:45;1.42;;;0.85;;
30998;SDS011;20549;50.042;8.968;2023-03-23T07:26:11;1.05;;;0.98;;
30998;SDS011;20549;50.042;8.968;2023-03-23T07:28:38;1.60;;;1.20;;
30998;SDS011;20549;50.042;8.968;2023-03-23T07:31:04;0.90;;;0.80;;
30998;SDS011;20549;50.042;8.968;2023-03-23T07:33:31;0.78;;;0.78;;
30998;SDS011;20549;50.042;8.968;2023-03-23T07:36:00;0.90;;;0.80;;
30998;SDS011;20549;50.042;8.968;2023-03-23T07:38:27;1.62;;;1.10;;
30998;SDS011;20549;50.042;8.968;2023-03-23T07:40:54;1.12;;;1.02;;
30998;SDS011;20549;50.042;8.968;2023-03-23T07:43:20;0.93;;;0.93;;
30998;SDS011;20549;50.042;8.968;2023-03-23T07:45:47;1.17;;;1.07;;
30998;SDS011;20549;50.042;8.968;2023-03-23T07:48:13;1.32;;;0.93;;
30998;SDS011;20549;50.042;8.968;2023-03-23T07:50:40;0.80;;;0.80;;
30998;SDS011;20549;50.042;8.968;2023-03-23T07:53:06;1.15;;;1.05;;
30998;SDS011;20549;50.042;8.968;2023-03-23T07:55:33;0.93;;;0.90;;
30998;SDS011;20549;50.042;8.968;2023-03-23T07:57:59;1.07;;;0.98;;
30998;SDS011;20549;50.042;8.968;2023-03-23T08:00:26;1.05;;;1.00;;
30998;SDS011;20549;50.042;8.968;2023-03-23T08:02:53;1.10;;;1.00;;
30998;SDS011;20549;50.042;8.968;2023-03-23T08:05:19;1.95;;;1.60;;
30998;SDS011;20549;50.042;8.968;2023-03-23T08:07:46;2.17;;;1.20;;
30998;SDS011;20549;50.042;8.968;2023-03-23T08:10:13;1.90;;;1.32;;
30998;SDS011;20549;50.042;8.968;2023-03-23T08:12:39;1.02;;;1.02;;
30998;SDS011;20549;50.042;8.968;2023-03-23T08:15:06;1.20;;;1.07;;
30998;SDS011;20549;50.042;8.968;2023-03-23T08:17:33;1.00;;;1.00;;
30998;SDS011;20549;50.042;8.968;2023-03-23T08:19:59;1.05;;;0.93;;
30998;SDS011;20549;50.042;8.968;2023-03-23T08:22:26;1.00;;;1.00;;
30998;SDS011;20549;50.042;8.968;2023-03-23T08:24:52;1.00;;;0.93;;
30998;SDS011;20549;50.042;8.968;2023-03-23T08:27:19;1.17;;;1.17;;
30998;SDS011;20549;50.042;8.968;2023-03-23T08:29:45;1.05;;;1.05;;
30998;SDS011;20549;50.042;8.968;2023-03-23T08:32:12;1.67;;;1.25;;
30998;SDS011;20549;50.042;8.968;2023-03-23T08:34:38;0.82;;;0.82;;
30998;SDS011;20549;50.042;8.968;2023-03-23T08:37:05;1.10;;;1.00;;
30998;SDS011;20549;50.042;8.968;2023-03-23T08:39:31;1.15;;;1.10;;
30998;SDS011;20549;50.042;8.968;2023-03-23T08:41:58;1.02;;;1.00;;
30998;SDS011;20549;50.042;8.968;2023-03-23T08:44:25;0.72;;;0.72;;
30998;SDS011;20549;50.042;8.968;2023-03-23T08:46:51;1.20;;;1.10;;
30998;SDS011;20549;50.042;8.968;2023-03-23T08:49:18;1.57;;;0.93;;
30998;SDS011;20549;50.042;8.968;2023-03-23T08:51:44;2.08;;;1.20;;
30998;SDS011;20549;50.042;8.968;2023-03-23T08:54:11;1.37;;;1.20;;
30998;SDS011;20549;50.042;8.968;2023-03-23T08:56:38;1.10;;;1.10;;
30998;SDS011;20549;50.042;8.968;2023-03-23T08:59:04;1.22;;;1.12;;
30998;SDS011;20549;50.042;8.968;2023-03-23T09:01:31;1.20;;;1.10;;
30998;SDS011;20549;50.042;8.968;2023-03-23T09:03:57;1.05;;;0.90;;
30998;SDS011;20549;50.042;8.968;2023-03-23T09:06:24;1.17;;;1.07;;
30998;SDS011;20549;50.042;8.968;2023-03-23T09:08:51;0.80;;;0.80;;
30998;SDS011;20549;50.042;8.968;2023-03-23T09:11:17;0.90;;;0.90;;
30998;SDS011;20549;50.042;8.968;2023-03-23T09:13:44;1.17;;;1.00;;
30998;SDS011;20549;50.042;8.968;2023-03-23T09:16:10;1.15;;;1.07;;
30998;SDS011;20549;50.042;8.968;2023-03-23T09:18:37;0.93;;;0.85;;
30998;SDS011;20549;50.042;8.968;2023-03-23T09:21:04;1.02;;;0.93;;
30998;SDS011;20549;50.042;8.968;2023-03-23T09:23:30;1.17;;;1.10;;
30998;SDS011;20549;50.042;8.968;2023-03-23T09:25:57;1.07;;;1.07;;
30998;SDS011;20549;50.042;8.968;2023-03-23T09:28:23;1.00;;;0.90;;
30998;SDS011;20549;50.042;8.968;2023-03-23T09:30:50;1.30;;;1.20;;
30998;SDS011;20549;50.042;8.968;2023-03-23T09:33:16;1.70;;;0.95;;
30998;SDS011;20549;50.042;8.968;2023-03-23T09:35:43;1.17;;;1.12;;
30998;SDS011;20549;50.042;8.968;2023-03-23T09:38:10;1.35;;;1.02;;
30998;SDS011;20549;50.042;8.968;2023-03-23T09:40:54;0.80;;;0.80;;
30998;SDS011;20549;50.042;8.968;2023-03-23T09:48:54;1.00;;;1.00;;
30998;SDS011;20549;50.042;8.968;2023-03-23T09:51:29;1.10;;;1.00;;
30998;SDS011;20549;50.042;8.968;2023-03-23T09:54:12;0.95;;;0.95;;
30998;SDS011;20549;50.042;8.968;2023-03-23T09:56:37;1.12;;;1.02;;
30998;SDS011;20549;50.042;8.968;2023-03-23T09:59:20;0.70;;;0.68;;
30998;SDS011;20549;50.042;8.968;2023-03-23T10:01:48;1.20;;;1.05;;
30998;SDS011;20549;50.042;8.968;2023-03-23T10:06:56;1.25;;;1.07;;
30998;SDS011;20549;50.042;8.968;2023-03-23T10:09:20;1.10;;;1.05;;
30998;SDS011;20549;50.042;8.968;2023-03-23T10:11:51;0.90;;;0.85;;
30998;SDS011;20549;50.042;8.968;2023-03-23T10:17:03;1.50;;;0.88;;
30998;SDS011;20549;50.042;8.968;2023-03-23T10:19:29;0.82;;;0.82;;
30998;SDS011;20549;50.042;8.968;2023-03-23T10:21:56;1.02;;;0.75;;
30998;SDS011;20549;50.042;8.968;2023-03-23T10:24:21;1.30;;;1.20;;
30998;SDS011;20549;50.042;8.968;2023-03-23T10:26:48;0.80;;;0.80;;
30998;SDS011;20549;50.042;8.968;2023-03-23T10:29:32;0.85;;;0.85;;
30998;SDS011;20549;50.042;8.968;2023-03-23T10:32:13;0.60;;;0.60;;
30998;SDS011;20549;50.042;8.968;2023-03-23T10:34:58;0.60;;;0.60;;
30998;SDS011;20549;50.042;8.968;2023-03-23T10:37:27;1.00;;;1.00;;
30998;SDS011;20549;50.042;8.968;2023-03-23T10:39:57;0.82;;;0.82;;
30998;SDS011;20549;50.042;8.968;2023-03-23T10:45:12;1.25;;;1.15;;
30998;SDS011;20549;50.042;8.968;2023-03-23T10:47:47;0.85;;;0.78;;
30998;SDS011;20549;50.042;8.968;2023-03-23T10:50:14;1.30;;;1.17;;
30998;SDS011;20549;50.042;8.968;2023-03-23T10:52:41;0.70;;;0.70;;
30998;SDS011;20549;50.042;8.968;2023-03-23T10:55:12;1.02;;;0.90;;
30998;SDS011;20549;50.042;8.968;2023-03-23T10:57:39;0.80;;;0.80;;
30998;SDS011;20549;50.042;8.968;2023-03-23T11:00:06;0.80;;;0.80;;
30998;SDS011;20549;50.042;8.968;2023-03-23T11:02:42;1.05;;;0.95;;
30998;SDS011;20549;50.042;8.968;2023-03-23T11:05:13;0.90;;;0.90;;
30998;SDS011;20549;50.042;8.968;2023-03-23T11:07:34;0.72;;;0.72;;
30998;SDS011;20549;50.042;8.968;2023-03-23T11:10:21;0.70;;;0.70;;
30998;SDS011;20549;50.042;8.968;2023-03-23T11:12:43;0.85;;;0.78;;
30998;SDS011;20549;50.042;8.968;2023-03-23T11:15:28;0.90;;;0.90;;
30998;SDS011;20549;50.042;8.968;2023-03-23T11:17:57;0.80;;;0.53;;
30998;SDS011;20549;50.042;8.968;2023-03-23T11:20:22;0.75;;;0.75;;
30998;SDS011;20549;50.042;8.968;2023-03-23T11:22:49;0.82;;;0.60;;
30998;SDS011;20549;50.042;8.968;2023-03-23T11:25:15;0.90;;;0.90;;
30998;SDS011;20549;50.042;8.968;2023-03-23T11:27:42;0.78;;;0.78;;
30998;SDS011;20549;50.042;8.968;2023-03-23T11:30:15;0.60;;;0.60;;
30998;SDS011;20549;50.042;8.968;2023-03-23T11:32:35;0.50;;;0.50;;
30998;SDS011;20549;50.042;8.968;2023-03-23T11:35:03;0.70;;;0.70;;
30998;SDS011;20549;50.042;8.968;2023-03-23T11:37:30;1.07;;;0.72;;
30998;SDS011;20549;50.042;8.968;2023-03-23T11:40:02;0.57;;;0.57;;
30998;SDS011;20549;50.042;8.968;2023-03-23T11:42:38;0.70;;;0.70;;
30998;SDS011;20549;50.042;8.968;2023-03-23T11:45:18;0.40;;;0.40;;
30998;SDS011;20549;50.042;8.968;2023-03-23T11:48:30;1.87;;;0.65;;
30998;SDS011;20549;50.042;8.968;2023-03-23T11:56:57;0.90;;;0.90;;
30998;SDS011;20549;50.042;8.968;2023-03-23T11:59:02;0.57;;;0.57;;
30998;SDS011;20549;50.042;8.968;2023-03-23T12:01:32;0.60;;;0.60;;
30998;SDS011;20549;50.042;8.968;2023-03-23T12:06:51;0.45;;;0.45;;
30998;SDS011;20549;50.042;8.968;2023-03-23T12:09:24;0.70;;;0.70;;
30998;SDS011;20549;50.042;8.968;2023-03-23T12:11:56;0.40;;;0.40;;
30998;SDS011;20549;50.042;8.968;2023-03-23T12:14:35;0.70;;;0.70;;
30998;SDS011;20549;50.042;8.968;2023-03-23T12:22:37;0.55;;;0.55;;
30998;SDS011;20549;50.042;8.968;2023-03-23T12:25:08;0.72;;;0.72;;
30998;SDS011;20549;50.042;8.968;2023-03-23T12:27:49;0.50;;;0.50;;
30998;SDS011;20549;50.042;8.968;2023-03-23T12:30:21;0.55;;;0.55;;
30998;SDS011;20549;50.042;8.968;2023-03-23T12:33:13;1.00;;;0.47;;
30998;SDS011;20549;50.042;8.968;2023-03-23T12:38:25;1.20;;;0.70;;
30998;SDS011;20549;50.042;8.968;2023-03-23T12:41:16;0.53;;;0.53;;
30998;SDS011;20549;50.042;8.968;2023-03-23T12:43:51;1.15;;;1.05;;
30998;SDS011;20549;50.042;8.968;2023-03-23T12:51:43;0.60;;;0.60;;
30998;SDS011;20549;50.042;8.968;2023-03-23T12:57:00;0.50;;;0.50;;
30998;SDS011;20549;50.042;8.968;2023-03-23T12:59:27;0.50;;;0.50;;
30998;SDS011;20549;50.042;8.968;2023-03-23T13:01:58;0.40;;;0.40;;
30998;SDS011;20549;50.042;8.968;2023-03-23T13:04:26;0.72;;;0.53;;
30998;SDS011;20549;50.042;8.968;2023-03-23T13:06:48;0.72;;;0.72;;
30998;SDS011;20549;50.042;8.968;2023-03-23T13:09:17;1.75;;;0.68;;
30998;SDS011;20549;50.042;8.968;2023-03-23T13:11:43;0.90;;;0.60;;
30998;SDS011;20549;50.042;8.968;2023-03-23T13:16:55;0.68;;;0.60;;
30998;SDS011;20549;50.042;8.968;2023-03-23T13:22:07;0.50;;;0.50;;
30998;SDS011;20549;50.042;8.968;2023-03-23T13:24:38;0.50;;;0.50;;
30998;SDS011;20549;50.042;8.968;2023-03-23T13:27:04;0.40;;;0.40;;
30998;SDS011;20549;50.042;8.968;2023-03-23T13:29:30;1.15;;;0.85;;
30998;SDS011;20549;50.042;8.968;2023-03-23T13:34:30;0.70;;;0.70;;
30998;SDS011;20549;50.042;8.968;2023-03-23T13:36:57;0.50;;;0.50;;
30998;SDS011;20549;50.042;8.968;2023-03-23T13:42:05;0.68;;;0.68;;
30998;SDS011;20549;50.042;8.968;2023-03-23T13:47:24;0.60;;;0.60;;
30998;SDS011;20549;50.042;8.968;2023-03-23T13:49:53;0.60;;;0.60;;
30998;SDS011;20549;50.042;8.968;2023-03-23T13:52:18;0.50;;;0.50;;
30998;SDS011;20549;50.042;8.968;2023-03-23T13:54:44;1.75;;;0.60;;
30998;SDS011;20549;50.042;8.968;2023-03-23T13:57:33;0.95;;;0.68;;
30998;SDS011;20549;50.042;8.968;2023-03-23T13:59:59;0.75;;;0.65;;
30998;SDS011;20549;50.042;8.968;2023-03-23T14:02:29;0.80;;;0.80;;
30998;SDS011;20549;50.042;8.968;2023-03-23T14:04:56;0.70;;;0.50;;
30998;SDS011;20549;50.042;8.968;2023-03-23T14:07:23;0.95;;;0.40;;
30998;SDS011;20549;50.042;8.968;2023-03-23T14:09:50;1.00;;;0.60;;
30998;SDS011;20549;50.042;8.968;2023-03-23T14:12:22;0.50;;;0.50;;
30998;SDS011;20549;50.042;8.968;2023-03-23T14:14:56;0.50;;;0.50;;
30998;SDS011;20549;50.042;8.968;2023-03-23T14:17:13;0.40;;;0.40;;
30998;SDS011;20549;50.042;8.968;2023-03-23T14:19:39;0.50;;;0.50;;
30998;SDS011;20549;50.042;8.968;2023-03-23T14:22:14;0.47;;;0.47;;
30998;SDS011;20549;50.042;8.968;2023-03-23T14:24:32;0.50;;;0.50;;
30998;SDS011;20549;50.042;8.968;2023-03-23T14:27:02;1.12;;;0.50;;
30998;SDS011;20549;50.042;8.968;2023-03-23T14:29:27;1.40;;;0.53;;
30998;SDS011;20549;50.042;8.968;2023-03-23T14:31:55;0.55;;;0.55;;
30998;SDS011;20549;50.042;8.968;2023-03-23T14:34:21;0.50;;;0.50;;
30998;SDS011;20549;50.042;8.968;2023-03-23T14:36:47;0.60;;;0.60;;
30998;SDS011;20549;50.042;8.968;2023-03-23T14:39:17;0.53;;;0.53;;
30998;SDS011;20549;50.042;8.968;2023-03-23T14:41:40;0.50;;;0.50;;
30998;SDS011;20549;50.042;8.968;2023-03-23T14:44:08;0.60;;;0.60;;
30998;SDS011;20549;50.042;8.968;2023-03-23T14:46:34;1.05;;;0.65;;
30998;SDS011;20549;50.042;8.968;2023-03-23T14:49:01;0.60;;;0.60;;
30998;SDS011;20549;50.042;8.968;2023-03-23T14:51:29;0.55;;;0.55;;
30998;SDS011;20549;50.042;8.968;2023-03-23T14:53:57;0.50;;;0.47;;
30998;SDS011;20549;50.042;8.968;2023-03-23T14:56:23;0.47;;;0.45;;
30998;SDS011;20549;50.042;8.968;2023-03-23T14:58:50;0.55;;;0.50;;
30998;SDS011;20549;50.042;8.968;2023-03-23T15:01:19;0.40;;;0.40;;
30998;SDS011;20549;50.042;8.968;2023-03-23T15:03:53;1.20;;;0.50;;
30998;SDS011;20549;50.042;8.968;2023-03-23T15:06:18;0.33;;;0.33;;
30998;SDS011;20549;50.042;8.968;2023-03-23T15:08:44;0.88;;;0.60;;
30998;SDS011;20549;50.042;8.968;2023-03-23T15:13:44;2.25;;;0.60;;
30998;SDS011;20549;50.042;8.968;2023-03-23T15:16:19;0.57;;;0.57;;
30998;SDS011;20549;50.042;8.968;2023-03-23T15:18:55;1.05;;;0.78;;
30998;SDS011;20549;50.042;8.968;2023-03-23T15:21:26;0.60;;;0.60;;
30998;SDS011;20549;50.042;8.968;2023-03-23T15:23:50;0.68;;;0.62;;
30998;SDS011;20549;50.042;8.968;2023-03-23T15:28:49;0.60;;;0.60;;
30998;SDS011;20549;50.042;8.968;2023-03-23T15:31:16;0.42;;;0.42;;
30998;SDS011;20549;50.042;8.968;2023-03-23T15:33:42;2.35;;;0.80;;
30998;SDS011;20549;50.042;8.968;2023-03-23T15:36:14;1.80;;;1.60;;
30998;SDS011;20549;50.042;8.968;2023-03-23T15:38:36;1.37;;;1.27;;
30998;SDS011;20549;50.042;8.968;2023-03-23T15:41:03;2.37;;;2.08;;
30998;SDS011;20549;50.042;8.968;2023-03-23T15:43:32;2.08;;;1.87;;
30998;SDS011;20549;50.042;8.968;2023-03-23T15:46:01;1.12;;;1.02;;
30998;SDS011;20549;50.042;8.968;2023-03-23T15:48:27;1.40;;;0.90;;
30998;SDS011;20549;50.042;8.968;2023-03-23T15:50:54;0.60;;;0.60;;
30998;SDS011;20549;50.042;8.968;2023-03-23T15:53:34;0.60;;;0.60;;
30998;SDS011;20549;50.042;8.968;2023-03-23T15:56:00;0.60;;;0.60;;
30998;SDS011;20549;50.042;8.968;2023-03-23T15:58:25;1.27;;;0.70;;
30998;SDS011;20549;50.042;8.968;2023-03-23T16:00:52;0.60;;;0.60;;
30998;SDS011;20549;50.042;8.968;2023-03-23T16:03:21;0.80;;;0.80;;
30998;SDS011;20549;50.042;8.968;2023-03-23T16:05:45;0.53;;;0.53;;
30998;SDS011;20549;50.042;8.968;2023-03-23T16:08:12;0.50;;;0.50;;